createdAt,value
2019-02-06T00:00:48.375Z,99259.06
2019-02-06T00:03:22.165Z,99264.66
2019-02-06T00:05:57.335Z,99266.39
2019-02-06T00:08:35.058Z,99267.70
2019-02-06T00:11:11.488Z,99263.83
2019-02-06T00:13:43.294Z,99270.25
2019-02-06T00:16:15.351Z,99269.87
2019-02-06T00:18:47.164Z,99265.16
2019-02-06T00:21:20.626Z,99267.33
2019-02-06T00:23:58.955Z,99265.19
2019-02-06T00:26:31.880Z,99263.05
2019-02-06T00:29:05.211Z,99266.05
2019-02-06T00:31:37.180Z,99264.80
2019-02-06T00:34:11.490Z,99263.52
2019-02-06T00:36:43.333Z,99260.97
2019-02-06T00:39:15.153Z,99260.98
2019-02-06T00:41:50.057Z,99263.55
2019-02-06T00:44:21.919Z,99266.58
2019-02-06T00:46:58.395Z,99266.16
2019-02-06T00:49:30.225Z,99275.11
2019-02-06T00:52:02.055Z,99267.44
2019-02-06T00:54:33.875Z,99267.92
2019-02-06T00:57:09.567Z,99264.10
2019-02-06T00:59:44.141Z,99262.83
2019-02-06T01:02:15.955Z,99264.49
2019-02-06T01:04:57.206Z,99260.26
2019-02-06T01:07:31.403Z,99259.86
2019-02-06T01:10:04.895Z,99259.44
2019-02-06T01:12:38.554Z,99250.89
2019-02-06T01:15:15.442Z,99258.58
2019-02-06T01:17:47.248Z,99249.64
2019-02-06T01:20:20.672Z,99246.64
2019-02-06T01:22:53.980Z,99238.92
2019-02-06T01:25:29.317Z,99243.20
2019-02-06T01:28:02.171Z,99248.77
2019-02-06T01:30:46.541Z,99250.94
2019-02-06T01:33:20.947Z,99245.02
2019-02-06T01:35:54.410Z,99242.48
2019-02-06T01:38:28.413Z,99239.93
2019-02-06T01:41:00.279Z,99245.92
2019-02-06T01:43:37.621Z,99248.55
2019-02-06T01:46:09.450Z,99243.91
2019-02-06T01:48:43.780Z,99247.30
2019-02-06T01:51:18.089Z,99241.73
2019-02-06T01:53:49.956Z,99240.06
2019-02-06T01:56:24.887Z,99240.03
2019-02-06T01:58:56.739Z,99243.45
2019-02-06T02:01:28.549Z,99244.30
2019-02-06T02:04:00.427Z,99241.34
2019-02-06T02:06:35.398Z,99255.80
2019-02-06T02:09:21.587Z,99249.88
2019-02-06T02:11:53.411Z,99251.18
2019-02-06T02:14:25.269Z,99253.73
2019-02-06T02:16:57.122Z,99252.46
2019-02-06T02:19:32.126Z,99251.63
2019-02-06T02:22:03.963Z,99249.45
2019-02-06T02:24:36.828Z,99247.79
2019-02-06T02:27:10.531Z,99248.66
2019-02-06T02:29:44.467Z,99248.69
2019-02-06T02:32:22.422Z,99244.85
2019-02-06T02:34:54.298Z,99242.69
2019-02-06T02:37:26.530Z,99241.84
2019-02-06T02:39:58.384Z,99242.73
2019-02-06T02:42:33.311Z,99241.03
2019-02-06T02:45:07.081Z,99238.94
2019-02-06T02:47:44.550Z,99241.46
2019-02-06T02:50:16.701Z,99238.94
2019-02-06T02:52:48.573Z,99238.52
2019-02-06T02:55:20.406Z,99237.22
2019-02-06T02:57:52.299Z,99236.38
2019-02-06T03:00:32.447Z,99243.57
2019-02-06T03:03:23.158Z,99240.17
2019-02-06T03:05:55.031Z,99236.80
2019-02-06T03:08:27.968Z,99233.81
2019-02-06T03:11:02.708Z,99230.86
2019-02-06T03:13:34.544Z,99228.72
2019-02-06T03:16:08.265Z,99232.98
2019-02-06T03:18:40.091Z,99232.57
2019-02-06T03:21:12.220Z,99226.15
2019-02-06T03:23:44.068Z,99232.55
2019-02-06T03:26:15.927Z,99226.60
2019-02-06T03:28:47.771Z,99225.33
2019-02-06T03:31:19.670Z,99225.36
2019-02-06T03:33:51.806Z,99218.53
2019-02-06T03:36:23.688Z,99220.25
2019-02-06T03:38:55.519Z,99220.25
2019-02-06T03:41:28.809Z,99217.27
2019-02-06T03:44:00.649Z,99220.30
2019-02-06T03:46:32.887Z,99221.62
2019-02-06T03:49:07.368Z,99220.77
2019-02-06T03:51:38.286Z,99216.09
2019-02-06T03:54:10.160Z,99216.08
2019-02-06T03:56:42.026Z,99217.77
2019-02-06T03:59:14.060Z,99220.83
2019-02-06T04:01:45.945Z,99212.72
2019-02-06T04:04:17.792Z,99217.38
2019-02-06T04:06:56.412Z,99218.21
2019-02-06T04:09:23.218Z,99205.88
2019-02-06T04:11:55.051Z,99199.48
2019-02-06T04:14:26.922Z,99205.49
2019-02-06T04:17:01.835Z,99210.13
2019-02-06T04:19:33.663Z,99217.39
2019-02-06T04:22:05.791Z,99208.89
2019-02-06T04:24:37.649Z,99213.56
2019-02-06T04:27:09.512Z,99209.71
2019-02-06T04:29:42.355Z,99207.16
2019-02-06T04:32:14.247Z,99211.00
2019-02-06T04:34:46.470Z,99217.83
2019-02-06T04:37:18.325Z,99213.98
2019-02-06T04:39:50.184Z,99212.69
2019-02-06T04:42:22.021Z,99207.17
2019-02-06T04:44:53.875Z,99211.03
2019-02-06T04:47:26.056Z,99204.19
2019-02-06T04:49:57.928Z,99208.42
2019-02-06T04:52:29.769Z,99208.44
2019-02-06T04:55:03.815Z,99201.66
2019-02-06T04:57:35.658Z,99205.42
2019-02-06T05:00:16.981Z,99199.93
2019-02-06T05:02:49.027Z,99197.73
2019-02-06T05:05:20.855Z,99194.82
2019-02-06T05:07:52.916Z,99192.71
2019-02-06T05:10:24.758Z,99194.42
2019-02-06T05:12:56.610Z,99199.58
2019-02-06T05:15:28.459Z,99189.34
2019-02-06T05:18:00.374Z,99193.66
2019-02-06T05:20:36.499Z,99193.23
2019-02-06T05:23:09.273Z,99193.66
2019-02-06T05:25:41.101Z,99193.22
2019-02-06T05:28:12.946Z,99190.23
2019-02-06T05:30:44.787Z,99186.80
2019-02-06T05:33:16.708Z,99190.25
2019-02-06T05:35:48.770Z,99191.09
2019-02-06T05:38:20.651Z,99183.41
2019-02-06T05:40:52.468Z,99190.22
2019-02-06T05:43:27.575Z,99189.37
2019-02-06T05:45:59.529Z,99187.25
2019-02-06T05:48:31.786Z,99192.81
2019-02-06T05:51:06.388Z,99194.09
2019-02-06T05:53:38.262Z,99191.97
2019-02-06T05:56:12.322Z,99195.80
2019-02-06T05:58:47.225Z,99202.66
2019-02-06T06:01:21.385Z,99201.36
2019-02-06T06:03:59.505Z,99205.24
2019-02-06T06:06:31.677Z,99211.19
2019-02-06T06:09:04.812Z,99204.84
2019-02-06T06:11:37.123Z,99206.95
2019-02-06T06:14:14.031Z,99205.24
2019-02-06T06:16:48.071Z,99202.69
2019-02-06T06:19:21.215Z,99207.41
2019-02-06T06:22:01.408Z,99212.47
2019-02-06T06:24:35.186Z,99202.67
2019-02-06T06:27:08.655Z,99199.67
2019-02-06T06:29:40.515Z,99197.55
2019-02-06T06:32:14.753Z,99197.09
2019-02-06T06:34:53.040Z,99194.98
2019-02-06T06:37:30.711Z,99192.44
2019-02-06T06:40:05.650Z,99189.43
2019-02-06T06:42:40.589Z,99198.38
2019-02-06T06:45:20.219Z,99202.66
2019-02-06T06:48:05.052Z,99206.51
2019-02-06T06:50:36.893Z,99207.80
2019-02-06T06:53:09.177Z,99209.52
2019-02-06T06:55:41.050Z,99201.88
2019-02-06T06:58:13.001Z,99199.30
2019-02-06T07:00:44.827Z,99204.87
2019-02-06T07:03:18.378Z,99202.30
2019-02-06T07:05:56.876Z,99204.38
2019-02-06T07:08:33.132Z,99205.17
2019-02-06T07:11:05.099Z,99208.49
2019-02-06T07:13:38.526Z,99216.91
2019-02-06T07:16:12.262Z,99213.45
2019-02-06T07:18:45.451Z,99222.27
2019-02-06T07:21:20.107Z,99221.69
2019-02-06T07:23:52.069Z,99216.87
2019-02-06T07:26:25.181Z,99218.91
2019-02-06T07:28:57.015Z,99217.55
2019-02-06T07:31:28.815Z,99221.78
2019-02-06T07:34:02.663Z,99221.86
2019-02-06T07:36:36.148Z,99220.19
2019-02-06T07:39:13.157Z,99226.62
2019-02-06T07:41:47.831Z,99223.14
2019-02-06T07:44:21.845Z,99225.66
2019-02-06T07:46:53.782Z,99226.48
2019-02-06T07:49:25.660Z,99224.66
2019-02-06T07:51:57.508Z,99220.72
2019-02-06T07:54:32.325Z,99223.13
2019-02-06T07:57:02.939Z,99221.17
2019-02-06T07:59:38.525Z,99227.01
2019-02-06T08:02:14.422Z,99219.70
2019-02-06T08:04:46.261Z,99214.39
2019-02-06T08:07:23.861Z,99213.09
2019-02-06T08:09:55.729Z,99215.13
2019-02-06T08:12:27.547Z,99215.46
2019-02-06T08:15:02.802Z,99215.77
2019-02-06T08:17:39.092Z,99216.48
2019-02-06T08:20:13.960Z,99215.13
2019-02-06T08:22:48.375Z,99219.34
2019-02-06T08:25:22.540Z,99215.00
2019-02-06T08:28:06.379Z,99212.02
2019-02-06T08:30:40.810Z,99214.59
2019-02-06T08:33:12.621Z,99218.68
2019-02-06T08:35:45.591Z,99220.71
2019-02-06T08:38:24.558Z,99219.69
2019-02-06T08:40:56.433Z,99227.13
2019-02-06T08:43:36.311Z,99224.78
2019-02-06T08:46:11.793Z,99227.91
2019-02-06T08:48:48.121Z,99229.75
2019-02-06T08:51:25.102Z,99221.13
2019-02-06T08:54:01.437Z,99223.73
2019-02-06T08:56:34.668Z,99226.94
2019-02-06T08:59:08.596Z,99231.67
2019-02-06T09:01:40.552Z,99225.56
2019-02-06T09:04:12.670Z,99233.14
2019-02-06T09:06:46.353Z,99223.09
2019-02-06T09:09:18.177Z,99219.77
2019-02-06T09:11:52.966Z,99225.25
2019-02-06T09:14:26.358Z,99232.46
2019-02-06T09:17:00.110Z,99224.54
2019-02-06T09:19:31.943Z,99217.33
2019-02-06T09:22:06.652Z,99210.95
2019-02-06T09:24:40.499Z,99216.33
2019-02-06T09:27:12.111Z,99216.97
2019-02-06T09:29:46.844Z,99213.80
2019-02-06T09:32:20.141Z,99208.89
2019-02-06T09:34:54.302Z,99206.52
2019-02-06T09:37:26.129Z,99206.34
2019-02-06T09:39:58.087Z,99204.42
2019-02-06T09:42:29.938Z,99204.02
2019-02-06T09:45:01.821Z,99201.48
2019-02-06T09:47:35.453Z,99204.38
2019-02-06T09:50:11.484Z,99204.52
2019-02-06T09:52:48.784Z,99197.00
2019-02-06T09:55:20.945Z,99204.59
2019-02-06T09:58:00.235Z,99206.52
2019-02-06T10:00:38.316Z,99205.19
2019-02-06T10:03:10.267Z,99194.73
2019-02-06T10:05:42.143Z,99194.08
2019-02-06T10:08:15.609Z,99188.48
2019-02-06T10:10:50.341Z,99191.13
2019-02-06T10:13:23.724Z,99189.91
2019-02-06T10:15:58.586Z,99189.59
2019-02-06T10:18:32.740Z,99183.46
2019-02-06T10:21:05.873Z,99179.57
2019-02-06T10:23:40.008Z,99178.95
2019-02-06T10:26:11.869Z,99176.74
2019-02-06T10:28:46.825Z,99171.06
2019-02-06T10:31:20.684Z,99170.05
2019-02-06T10:33:54.533Z,99168.95
2019-02-06T10:36:33.110Z,99170.41
2019-02-06T10:39:09.546Z,99166.27
2019-02-06T10:41:44.090Z,99162.29
2019-02-06T10:44:18.465Z,99161.59
2019-02-06T10:46:52.504Z,99152.02
2019-02-06T10:49:26.767Z,99149.75
2019-02-06T10:51:58.339Z,99144.00
2019-02-06T10:54:36.654Z,99142.95
2019-02-06T10:57:15.878Z,99139.84
2019-02-06T10:59:50.063Z,99131.97
2019-02-06T11:02:21.638Z,99133.70
2019-02-06T11:05:05.196Z,99122.73
2019-02-06T11:07:37.368Z,99125.92
2019-02-06T11:10:13.380Z,99122.20
2019-02-06T11:12:44.964Z,99118.15
2019-02-06T11:15:19.439Z,99107.73
2019-02-06T11:17:55.101Z,99105.55
2019-02-06T11:20:29.322Z,99107.81
2019-02-06T11:23:02.099Z,99100.23
2019-02-06T11:25:38.665Z,99100.44
2019-02-06T11:28:11.434Z,99097.73
2019-02-06T11:30:43.025Z,99090.75
2019-02-06T11:33:16.254Z,99088.67
2019-02-06T11:35:47.923Z,99081.33
2019-02-06T11:38:20.830Z,99077.05
2019-02-06T11:40:52.507Z,99068.09
2019-02-06T11:43:24.049Z,99070.45
2019-02-06T11:45:55.648Z,99063.73
2019-02-06T11:48:31.975Z,99056.70
2019-02-06T11:51:06.355Z,99058.76
2019-02-06T11:53:36.995Z,99050.45
2019-02-06T11:56:08.631Z,99049.25
2019-02-06T11:58:46.833Z,99044.15
2019-02-06T12:01:32.754Z,99040.30
2019-02-06T12:04:04.335Z,99045.05
2019-02-06T12:06:37.166Z,99040.70
2019-02-06T12:09:14.479Z,99037.41
2019-02-06T12:11:47.482Z,99029.86
2019-02-06T12:14:21.287Z,99034.29
2019-02-06T12:16:52.839Z,99027.00
2019-02-06T12:19:24.615Z,99024.54
2019-02-06T12:22:00.774Z,99015.18
2019-02-06T12:24:36.685Z,99010.25
2019-02-06T12:27:11.332Z,99007.55
2019-02-06T12:29:50.579Z,98994.13
2019-02-06T12:32:23.814Z,98992.83
2019-02-06T12:34:55.365Z,98985.56
2019-02-06T12:37:26.991Z,98982.83
2019-02-06T12:39:58.574Z,98977.97
2019-02-06T12:42:42.305Z,98977.83
2019-02-06T12:45:20.529Z,98974.16
2019-02-06T12:47:52.183Z,98969.55
2019-02-06T12:50:24.663Z,98963.67
2019-02-06T12:52:59.038Z,98953.69
2019-02-06T12:55:33.544Z,98950.34
2019-02-06T12:58:12.915Z,98947.52
2019-02-06T13:00:45.306Z,98943.05
2019-02-06T13:03:19.062Z,98937.91
2019-02-06T13:05:50.628Z,98933.03
2019-02-06T13:08:22.216Z,98929.14
2019-02-06T13:10:57.487Z,98926.31
2019-02-06T13:13:33.186Z,98925.63
2019-02-06T13:16:04.869Z,98924.89
2019-02-06T13:18:39.696Z,98921.97
2019-02-06T13:21:11.258Z,98912.35
2019-02-06T13:23:49.229Z,98914.33
2019-02-06T13:26:25.686Z,98910.67
2019-02-06T13:28:59.062Z,98914.35
2019-02-06T13:31:30.629Z,98911.52
2019-02-06T13:34:02.509Z,98903.41
2019-02-06T13:36:34.054Z,98904.56
2019-02-06T13:39:12.188Z,98904.09
2019-02-06T13:41:43.782Z,98896.59
2019-02-06T13:44:18.608Z,98890.30
2019-02-06T13:46:53.185Z,98885.69
2019-02-06T13:49:23.463Z,98886.84
2019-02-06T13:51:55.018Z,98882.27
2019-02-06T13:54:28.326Z,98882.39
2019-02-06T13:57:00.302Z,98872.68
2019-02-06T13:59:31.876Z,98865.06
2019-02-06T14:02:03.471Z,98870.51
2019-02-06T14:04:35.173Z,98866.44
2019-02-06T14:07:08.623Z,98856.26
2019-02-06T14:09:40.596Z,98857.09
2019-02-06T14:12:13.561Z,98844.30
2019-02-06T14:14:50.434Z,98841.78
2019-02-06T14:17:23.107Z,98840.13
2019-02-06T14:20:03.865Z,98837.77
2019-02-06T14:22:41.490Z,98829.64
2019-02-06T14:25:46.192Z,98825.58
2019-02-06T14:29:46.673Z,98824.51
2019-02-06T14:33:03.280Z,98817.05
2019-02-06T14:36:18.646Z,98815.98
2019-02-06T14:39:37.782Z,98810.61
2019-02-06T14:42:54.635Z,98810.06
2019-02-06T14:46:29.014Z,98804.33
2019-02-06T14:49:43.396Z,98794.27
2019-02-06T14:52:50.036Z,98790.28
2019-02-06T14:56:09.712Z,98791.98
2019-02-06T14:59:50.152Z,98786.85
2019-02-06T15:03:04.233Z,98778.20
2019-02-06T15:06:30.768Z,98773.83
2019-02-06T15:09:53.453Z,98776.52
2019-02-06T15:13:14.601Z,98766.57
2019-02-06T15:16:46.761Z,98767.09
2019-02-06T15:19:58.291Z,98762.83
2019-02-06T15:23:32.919Z,98762.05
2019-02-06T15:27:02.922Z,98751.30
2019-02-06T15:30:46.750Z,98752.16
2019-02-06T15:33:46.747Z,98748.42
2019-02-06T15:37:14.073Z,98750.72
2019-02-06T15:40:34.302Z,98749.97
2019-02-06T15:44:01.989Z,98742.77
2019-02-06T15:47:52.948Z,98734.77
2019-02-06T15:50:43.947Z,98737.45
2019-02-06T15:53:55.756Z,98734.31
2019-02-06T15:57:01.678Z,98721.70
2019-02-06T16:00:34.995Z,98718.92
2019-02-06T16:04:28.393Z,98713.29
2019-02-06T16:08:01.979Z,98719.53
2019-02-06T16:11:24.036Z,98726.46
2019-02-06T16:15:03.440Z,98730.52
2019-02-06T16:18:34.052Z,98730.51
2019-02-06T16:22:07.702Z,98726.47
2019-02-06T16:25:01.510Z,98722.59
2019-02-06T16:28:39.342Z,98718.05
2019-02-06T16:32:04.548Z,98716.67
2019-02-06T16:35:21.941Z,98714.00
2019-02-06T16:38:18.791Z,98716.81
2019-02-06T16:41:52.853Z,98716.35
2019-02-06T16:44:47.881Z,98712.38
2019-02-06T16:48:00.949Z,98706.69
2019-02-06T16:50:50.156Z,98710.94
2019-02-06T16:54:52.425Z,98713.02
2019-02-06T16:58:11.268Z,98719.90
2019-02-06T17:01:41.531Z,98703.80
2019-02-06T17:05:18.247Z,98709.62
2019-02-06T17:09:14.006Z,98705.55
2019-02-06T17:12:25.822Z,98708.62
2019-02-06T17:15:42.483Z,98717.28
2019-02-06T17:19:15.244Z,98709.66
2019-02-06T17:22:28.955Z,98701.81
2019-02-06T17:26:19.970Z,98708.20
2019-02-06T17:29:38.742Z,98699.95
2019-02-06T17:33:14.695Z,98698.19
2019-02-06T17:36:25.298Z,98694.61
2019-02-06T17:40:15.464Z,98693.42
2019-02-06T17:43:32.402Z,98692.95
2019-02-06T17:46:40.992Z,98682.13
2019-02-06T17:50:20.424Z,98683.83
2019-02-06T17:53:33.030Z,98674.84
2019-02-06T17:56:05.790Z,98676.99
2019-02-06T17:58:42.330Z,98675.20
2019-02-06T18:01:29.964Z,98676.78
2019-02-06T18:04:15.356Z,98674.94
2019-02-06T18:06:46.924Z,98675.42
2019-02-06T18:09:21.633Z,98668.30
2019-02-06T18:11:54.155Z,98670.94
2019-02-06T18:14:26.024Z,98665.93
2019-02-06T18:16:57.897Z,98669.19
2019-02-06T18:19:30.741Z,98659.70
2019-02-06T18:22:02.590Z,98659.02
2019-02-06T18:24:34.489Z,98654.08
2019-02-06T18:27:07.814Z,98653.30
2019-02-06T18:29:39.896Z,98648.73
2019-02-06T18:32:11.829Z,98655.34
2019-02-06T18:34:43.915Z,98652.92
2019-02-06T18:37:15.879Z,98647.87
2019-02-06T18:39:49.406Z,98654.98
2019-02-06T18:42:21.242Z,98645.55
2019-02-06T18:44:54.864Z,98646.27
2019-02-06T18:47:27.132Z,98638.36
2019-02-06T18:49:59.108Z,98640.12
2019-02-06T18:52:30.972Z,98638.98
2019-02-06T18:55:05.703Z,98636.23
2019-02-06T18:57:39.293Z,98637.26
2019-02-06T19:00:28.766Z,98633.78
2019-02-06T19:03:02.714Z,98629.61
2019-02-06T19:05:40.065Z,98626.20
2019-02-06T19:08:12.124Z,98630.95
2019-02-06T19:10:46.385Z,98632.89
2019-02-06T19:13:21.428Z,98640.72
2019-02-06T19:15:57.113Z,98629.31
2019-02-06T19:18:32.175Z,98629.13
2019-02-06T19:21:09.537Z,98632.59
2019-02-06T19:23:46.794Z,98629.97
2019-02-06T19:26:20.403Z,98629.55
2019-02-06T19:28:57.526Z,98633.70
2019-02-06T19:31:29.543Z,98635.39
2019-02-06T19:34:01.510Z,98628.59
2019-02-06T19:36:34.763Z,98634.94
2019-02-06T19:39:10.000Z,98632.86
2019-02-06T19:41:41.904Z,98637.09
2019-02-06T19:44:17.777Z,98634.06
2019-02-06T19:46:55.416Z,98627.57
2019-02-06T19:49:27.285Z,98629.36
2019-02-06T19:51:59.203Z,98631.58
2019-02-06T19:54:32.392Z,98621.82
2019-02-06T19:57:07.540Z,98619.77
2019-02-06T19:59:41.552Z,98612.39
2019-02-06T20:02:18.102Z,98604.91
2019-02-06T20:04:51.322Z,98607.38
2019-02-06T20:07:26.635Z,98600.56
2019-02-06T20:10:00.725Z,98592.02
2019-02-06T20:12:33.776Z,98583.32
2019-02-06T20:15:06.736Z,98585.16
2019-02-06T20:17:40.675Z,98587.92
2019-02-06T20:20:17.648Z,98581.27
2019-02-06T20:22:52.230Z,98569.72
2019-02-06T20:25:26.910Z,98575.47
2019-02-06T20:27:58.779Z,98577.68
2019-02-06T20:30:35.058Z,98571.47
2019-02-06T20:33:10.028Z,98576.67
2019-02-06T20:35:45.222Z,98571.66
2019-02-06T20:38:17.127Z,98584.23
2019-02-06T20:40:49.150Z,98578.68
2019-02-06T20:43:22.547Z,98587.41
2019-02-06T20:45:57.510Z,98591.03
2019-02-06T20:48:29.393Z,98590.25
2019-02-06T20:51:01.268Z,98578.67
2019-02-06T20:53:33.138Z,98580.45
2019-02-06T20:56:05.233Z,98573.66
2019-02-06T20:58:38.580Z,98571.58
2019-02-06T21:01:11.844Z,98560.28
2019-02-06T21:03:43.781Z,98566.94
2019-02-06T21:06:18.437Z,98563.16
2019-02-06T21:09:01.617Z,98552.96
2019-02-06T21:11:36.435Z,98547.41
2019-02-06T21:14:10.751Z,98544.92
2019-02-06T21:16:45.458Z,98539.32
2019-02-06T21:19:20.478Z,98537.34
2019-02-06T21:21:52.691Z,98534.06
2019-02-06T21:24:26.029Z,98541.37
2019-02-06T21:26:57.906Z,98538.88
2019-02-06T21:29:32.867Z,98541.03
2019-02-06T21:32:06.810Z,98538.05
2019-02-06T21:34:40.300Z,98534.23
2019-02-06T21:37:12.204Z,98545.06
2019-02-06T21:39:44.088Z,98542.12
2019-02-06T21:42:15.948Z,98538.63
2019-02-06T21:44:50.927Z,98533.53
2019-02-06T21:47:24.909Z,98521.09
2019-02-06T21:49:58.092Z,98521.09
2019-02-06T21:52:30.001Z,98521.42
2019-02-06T21:55:06.505Z,98521.50
2019-02-06T21:57:39.654Z,98517.82
2019-02-06T22:00:24.113Z,98515.37
2019-02-06T22:02:56.034Z,98502.06
2019-02-06T22:05:27.996Z,98503.40
2019-02-06T22:08:02.755Z,98497.59
2019-02-06T22:10:34.621Z,98496.06
2019-02-06T22:13:09.679Z,98496.98
2019-02-06T22:15:44.380Z,98493.62
2019-02-06T22:18:16.783Z,98491.92
2019-02-06T22:20:49.901Z,98487.56
2019-02-06T22:23:22.747Z,98492.54
2019-02-06T22:25:54.603Z,98501.50
2019-02-06T22:28:27.556Z,98502.13
2019-02-06T22:31:07.275Z,98501.66
2019-02-06T22:33:42.365Z,98500.58
2019-02-06T22:36:21.877Z,98501.58
2019-02-06T22:38:56.493Z,98503.36
2019-02-06T22:41:30.203Z,98503.56
2019-02-06T22:44:07.020Z,98499.75
2019-02-06T22:46:38.916Z,98498.13
2019-02-06T22:49:11.019Z,98494.36
2019-02-06T22:51:44.662Z,98490.05
2019-02-06T22:54:18.834Z,98490.50
2019-02-06T22:56:53.567Z,98488.84
2019-02-06T22:59:25.487Z,98488.05
2019-02-06T23:02:01.675Z,98493.19
2019-02-06T23:04:37.925Z,98487.06
2019-02-06T23:07:12.818Z,98480.96
2019-02-06T23:09:47.227Z,98474.56
2019-02-06T23:12:19.070Z,98464.89
2019-02-06T23:14:50.951Z,98461.50
2019-02-06T23:17:22.986Z,98457.34
2019-02-06T23:19:54.843Z,98460.29
2019-02-06T23:22:26.709Z,98460.78
2019-02-06T23:25:01.750Z,98461.65
2019-02-06T23:27:34.887Z,98462.18
2019-02-06T23:30:07.937Z,98451.80
2019-02-06T23:32:39.826Z,98452.92
2019-02-06T23:35:11.673Z,98447.16
2019-02-06T23:37:43.548Z,98443.80
2019-02-06T23:40:18.112Z,98441.23
2019-02-06T23:42:49.975Z,98436.66
2019-02-06T23:45:21.895Z,98430.36
2019-02-06T23:47:53.742Z,98423.61
2019-02-06T23:50:25.594Z,98410.02
2019-02-06T23:52:57.457Z,98402.86
2019-02-06T23:55:29.275Z,98392.78
2019-02-06T23:58:01.126Z,98380.78
